sensor_id;sensor_type;location;lat;lon;timestamp;P1;durP1;ratioP1;P2;durP2;ratioP2
15843;SDS011;50807;52.436;13.346;2023-12-04T00:00:04;16.27;;;13.73;;
15843;SDS011;50807;52.436;13.346;2023-12-04T00:00:38;16.95;;;14.20;;
15843;SDS011;50807;52.436;13.346;2023-12-04T00:01:09;15.45;;;13.85;;
15843;SDS011;50807;52.436;13.346;2023-12-04T00:01:42;16.40;;;14.40;;
15843;SDS011;50807;52.436;13.346;2023-12-04T00:02:15;16.08;;;13.80;;
15843;SDS011;50807;52.436;13.346;2023-12-04T00:02:46;15.80;;;14.05;;
15843;SDS011;50807;52.436;13.346;2023-12-04T00:03:17;16.07;;;14.23;;
15843;SDS011;50807;52.436;13.346;2023-12-04T00:03:48;15.50;;;13.90;;
15843;SDS011;50807;52.436;13.346;2023-12-04T00:04:18;16.73;;;14.90;;
15843;SDS011;50807;52.436;13.346;2023-12-04T00:04:50;16.38;;;14.55;;
15843;SDS011;50807;52.436;13.346;2023-12-04T00:05:21;16.73;;;14.90;;
15843;SDS011;50807;52.436;13.346;2023-12-04T00:05:52;15.80;;;14.20;;
15843;SDS011;50807;52.436;13.346;2023-12-04T00:06:22;16.83;;;14.43;;
15843;SDS011;50807;52.436;13.346;2023-12-04T00:06:53;16.88;;;15.07;;
15843;SDS011;50807;52.436;13.346;2023-12-04T00:07:25;15.60;;;13.95;;
15843;SDS011;50807;52.436;13.346;2023-12-04T00:07:56;17.57;;;15.20;;
15843;SDS011;50807;52.436;13.346;2023-12-04T00:08:28;16.43;;;14.37;;
15843;SDS011;50807;52.436;13.346;2023-12-04T00:08:58;17.00;;;15.20;;
15843;SDS011;50807;52.436;13.346;2023-12-04T00:09:30;16.40;;;14.40;;
15843;SDS011;50807;52.436;13.346;2023-12-04T00:10:01;16.80;;;14.67;;
15843;SDS011;50807;52.436;13.346;2023-12-04T00:10:32;16.38;;;14.40;;
15843;SDS011;50807;52.436;13.346;2023-12-04T00:11:03;17.87;;;15.17;;
15843;SDS011;50807;52.436;13.346;2023-12-04T00:11:35;16.50;;;14.73;;
15843;SDS011;50807;52.436;13.346;2023-12-04T00:12:06;17.33;;;14.63;;
15843;SDS011;50807;52.436;13.346;2023-12-04T00:12:38;17.02;;;15.23;;
15843;SDS011;50807;52.436;13.346;2023-12-04T00:13:08;16.87;;;15.07;;
15843;SDS011;50807;52.436;13.346;2023-12-04T00:13:40;16.75;;;14.68;;
15843;SDS011;50807;52.436;13.346;2023-12-04T00:14:11;16.47;;;13.90;;
15843;SDS011;50807;52.436;13.346;2023-12-04T00:14:41;17.00;;;15.00;;
15843;SDS011;50807;52.436;13.346;2023-12-04T00:15:12;16.37;;;14.57;;
15843;SDS011;50807;52.436;13.346;2023-12-04T00:15:43;16.67;;;14.97;;
15843;SDS011;50807;52.436;13.346;2023-12-04T00:16:15;17.17;;;15.35;;
15843;SDS011;50807;52.436;13.346;2023-12-04T00:16:46;17.93;;;16.03;;
15843;SDS011;50807;52.436;13.346;2023-12-04T00:17:17;18.03;;;16.13;;
15843;SDS011;50807;52.436;13.346;2023-12-04T00:17:48;16.85;;;15.05;;
15843;SDS011;50807;52.436;13.346;2023-12-04T00:18:18;17.57;;;15.70;;
15843;SDS011;50807;52.436;13.346;2023-12-04T00:18:50;16.90;;;15.13;;
15843;SDS011;50807;52.436;13.346;2023-12-04T00:19:21;17.90;;;16.03;;
15843;SDS011;50807;52.436;13.346;2023-12-04T00:19:52;16.73;;;15.03;;
15843;SDS011;50807;52.436;13.346;2023-12-04T00:20:22;18.00;;;15.80;;
15843;SDS011;50807;52.436;13.346;2023-12-04T00:20:53;17.77;;;15.73;;
15843;SDS011;50807;52.436;13.346;2023-12-04T00:21:25;18.25;;;15.10;;
15843;SDS011;50807;52.436;13.346;2023-12-04T00:21:55;19.23;;;16.27;;
15843;SDS011;50807;52.436;13.346;2023-12-04T00:22:26;17.00;;;14.57;;
15843;SDS011;50807;52.436;13.346;2023-12-04T00:22:58;17.60;;;15.60;;
15843;SDS011;50807;52.436;13.346;2023-12-04T00:23:30;17.53;;;15.63;;
15843;SDS011;50807;52.436;13.346;2023-12-04T00:24:01;17.58;;;15.65;;
15843;SDS011;50807;52.436;13.346;2023-12-04T00:24:32;17.25;;;15.48;;
15843;SDS011;50807;52.436;13.346;2023-12-04T00:25:03;16.63;;;14.85;;
15843;SDS011;50807;52.436;13.346;2023-12-04T00:25:37;17.95;;;15.50;;
15843;SDS011;50807;52.436;13.346;2023-12-04T00:26:08;17.03;;;14.57;;
15843;SDS011;50807;52.436;13.346;2023-12-04T00:26:39;17.25;;;15.43;;
15843;SDS011;50807;52.436;13.346;2023-12-04T00:27:10;18.20;;;16.27;;
15843;SDS011;50807;52.436;13.346;2023-12-04T00:27:42;17.33;;;15.48;;
15843;SDS011;50807;52.436;13.346;2023-12-04T00:28:13;18.43;;;15.87;;
15843;SDS011;50807;52.436;13.346;2023-12-04T00:28:44;17.57;;;15.63;;
15843;SDS011;50807;52.436;13.346;2023-12-04T00:29:15;18.40;;;16.40;;
15843;SDS011;50807;52.436;13.346;2023-12-04T00:29:46;17.60;;;15.70;;
15843;SDS011;50807;52.436;13.346;2023-12-04T00:30:17;19.23;;;16.03;;
15843;SDS011;50807;52.436;13.346;2023-12-04T00:30:48;19.07;;;17.10;;
15843;SDS011;50807;52.436;13.346;2023-12-04T00:31:18;17.57;;;15.77;;
15843;SDS011;50807;52.436;13.346;2023-12-04T00:31:50;18.15;;;16.25;;
15843;SDS011;50807;52.436;13.346;2023-12-04T00:32:21;17.93;;;15.67;;
15843;SDS011;50807;52.436;13.346;2023-12-04T00:32:52;17.83;;;16.00;;
15843;SDS011;50807;52.436;13.346;2023-12-04T00:33:23;17.40;;;15.60;;
15843;SDS011;50807;52.436;13.346;2023-12-04T00:33:54;18.23;;;16.23;;
15843;SDS011;50807;52.436;13.346;2023-12-04T00:34:25;17.83;;;15.93;;
15843;SDS011;50807;52.436;13.346;2023-12-04T00:34:56;18.03;;;16.07;;
15843;SDS011;50807;52.436;13.346;2023-12-04T00:35:27;17.97;;;16.10;;
15843;SDS011;50807;52.436;13.346;2023-12-04T00:35:58;19.20;;;16.05;;
15843;SDS011;50807;52.436;13.346;2023-12-04T00:36:29;18.63;;;16.53;;
15843;SDS011;50807;52.436;13.346;2023-12-04T00:37:00;18.13;;;16.17;;
15843;SDS011;50807;52.436;13.346;2023-12-04T00:37:31;17.77;;;15.83;;
15843;SDS011;50807;52.436;13.346;2023-12-04T00:38:07;17.95;;;16.02;;
15843;SDS011;50807;52.436;13.346;2023-12-04T00:38:39;18.53;;;16.53;;
15843;SDS011;50807;52.436;13.346;2023-12-04T00:39:10;18.08;;;16.20;;
15843;SDS011;50807;52.436;13.346;2023-12-04T00:39:42;16.85;;;14.90;;
15843;SDS011;50807;52.436;13.346;2023-12-04T00:40:13;19.00;;;16.93;;
15843;SDS011;50807;52.436;13.346;2023-12-04T00:40:43;17.77;;;15.73;;
15843;SDS011;50807;52.436;13.346;2023-12-04T00:41:15;19.83;;;17.45;;
15843;SDS011;50807;52.436;13.346;2023-12-04T00:41:46;18.75;;;16.75;;
15843;SDS011;50807;52.436;13.346;2023-12-04T00:42:17;17.80;;;15.90;;
15843;SDS011;50807;52.436;13.346;2023-12-04T00:42:48;18.40;;;16.37;;
15843;SDS011;50807;52.436;13.346;2023-12-04T00:43:19;18.40;;;16.40;;
15843;SDS011;50807;52.436;13.346;2023-12-04T00:43:50;17.98;;;16.00;;
15843;SDS011;50807;52.436;13.346;2023-12-04T00:44:21;20.07;;;17.87;;
15843;SDS011;50807;52.436;13.346;2023-12-04T00:44:52;18.97;;;16.50;;
15843;SDS011;50807;52.436;13.346;2023-12-04T00:45:23;17.83;;;15.67;;
15843;SDS011;50807;52.436;13.346;2023-12-04T00:45:55;18.15;;;15.85;;
15843;SDS011;50807;52.436;13.346;2023-12-04T00:46:26;18.23;;;16.30;;
15843;SDS011;50807;52.436;13.346;2023-12-04T00:46:57;18.57;;;16.40;;
15843;SDS011;50807;52.436;13.346;2023-12-04T00:47:28;18.73;;;16.03;;
15843;SDS011;50807;52.436;13.346;2023-12-04T00:47:59;17.83;;;15.93;;
15843;SDS011;50807;52.436;13.346;2023-12-04T00:48:30;18.37;;;16.17;;
15843;SDS011;50807;52.436;13.346;2023-12-04T00:49:01;18.60;;;16.70;;
15843;SDS011;50807;52.436;13.346;2023-12-04T00:49:32;17.13;;;15.33;;
15843;SDS011;50807;52.436;13.346;2023-12-04T00:50:04;17.88;;;15.85;;
15843;SDS011;50807;52.436;13.346;2023-12-04T00:50:36;18.48;;;16.48;;
15843;SDS011;50807;52.436;13.346;2023-12-04T00:51:07;19.00;;;16.60;;
15843;SDS011;50807;52.436;13.346;2023-12-04T00:51:38;17.87;;;15.83;;
15843;SDS011;50807;52.436;13.346;2023-12-04T00:52:10;18.55;;;16.58;;
15843;SDS011;50807;52.436;13.346;2023-12-04T00:52:41;17.90;;;16.03;;
15843;SDS011;50807;52.436;13.346;2023-12-04T00:53:11;18.27;;;16.27;;
15843;SDS011;50807;52.436;13.346;2023-12-04T00:53:44;19.10;;;16.98;;
15843;SDS011;50807;52.436;13.346;2023-12-04T00:54:18;18.95;;;16.90;;
15843;SDS011;50807;52.436;13.346;2023-12-04T00:54:49;18.10;;;16.17;;
15843;SDS011;50807;52.436;13.346;2023-12-04T00:55:21;18.25;;;16.27;;
15843;SDS011;50807;52.436;13.346;2023-12-04T00:55:52;17.65;;;15.75;;
15843;SDS011;50807;52.436;13.346;2023-12-04T00:56:24;17.52;;;15.65;;
15843;SDS011;50807;52.436;13.346;2023-12-04T00:56:55;18.50;;;16.57;;
15843;SDS011;50807;52.436;13.346;2023-12-04T00:57:26;18.43;;;16.47;;
15843;SDS011;50807;52.436;13.346;2023-12-04T00:57:57;18.52;;;16.40;;
15843;SDS011;50807;52.436;13.346;2023-12-04T00:58:28;18.52;;;16.58;;
15843;SDS011;50807;52.436;13.346;2023-12-04T00:58:59;16.90;;;15.10;;
15843;SDS011;50807;52.436;13.346;2023-12-04T00:59:30;18.55;;;16.55;;
15843;SDS011;50807;52.436;13.346;2023-12-04T01:00:01;17.73;;;15.93;;
15843;SDS011;50807;52.436;13.346;2023-12-04T01:00:33;18.15;;;15.88;;
15843;SDS011;50807;52.436;13.346;2023-12-04T01:01:04;18.30;;;16.37;;
15843;SDS011;50807;52.436;13.346;2023-12-04T01:01:36;18.45;;;16.52;;
15843;SDS011;50807;52.436;13.346;2023-12-04T01:02:07;18.08;;;16.17;;
15843;SDS011;50807;52.436;13.346;2023-12-04T01:02:38;18.60;;;16.73;;
15843;SDS011;50807;52.436;13.346;2023-12-04T01:03:10;19.83;;;16.45;;
15843;SDS011;50807;52.436;13.346;2023-12-04T01:03:40;18.43;;;16.37;;
15843;SDS011;50807;52.436;13.346;2023-12-04T01:04:12;18.42;;;16.52;;
15843;SDS011;50807;52.436;13.346;2023-12-04T01:04:43;18.03;;;16.13;;
15843;SDS011;50807;52.436;13.346;2023-12-04T01:05:13;18.00;;;16.10;;
15843;SDS011;50807;52.436;13.346;2023-12-04T01:05:44;18.63;;;16.73;;
15843;SDS011;50807;52.436;13.346;2023-12-04T01:06:22;19.20;;;16.77;;
15843;SDS011;50807;52.436;13.346;2023-12-04T01:06:53;19.08;;;16.55;;
15843;SDS011;50807;52.436;13.346;2023-12-04T01:07:24;18.40;;;16.40;;
15843;SDS011;50807;52.436;13.346;2023-12-04T01:07:55;18.30;;;16.10;;
15843;SDS011;50807;52.436;13.346;2023-12-04T01:08:26;19.03;;;16.87;;
15843;SDS011;50807;52.436;13.346;2023-12-04T01:08:59;18.48;;;16.55;;
15843;SDS011;50807;52.436;13.346;2023-12-04T01:09:29;18.80;;;16.80;;
15843;SDS011;50807;52.436;13.346;2023-12-04T01:10:00;18.23;;;16.07;;
15843;SDS011;50807;52.436;13.346;2023-12-04T01:10:31;19.30;;;16.90;;
15843;SDS011;50807;52.436;13.346;2023-12-04T01:11:03;20.05;;;17.45;;
15843;SDS011;50807;52.436;13.346;2023-12-04T01:11:35;18.50;;;16.48;;
15843;SDS011;50807;52.436;13.346;2023-12-04T01:12:06;18.15;;;16.08;;
15843;SDS011;50807;52.436;13.346;2023-12-04T01:12:37;18.80;;;16.80;;
15843;SDS011;50807;52.436;13.346;2023-12-04T01:13:08;17.80;;;15.90;;
15843;SDS011;50807;52.436;13.346;2023-12-04T01:13:41;19.00;;;17.00;;
15843;SDS011;50807;52.436;13.346;2023-12-04T01:14:12;20.52;;;18.33;;
15843;SDS011;50807;52.436;13.346;2023-12-04T01:14:43;20.67;;;17.00;;
15843;SDS011;50807;52.436;13.346;2023-12-04T01:15:14;19.42;;;17.38;;
15843;SDS011;50807;52.436;13.346;2023-12-04T01:15:47;19.23;;;17.15;;
15843;SDS011;50807;52.436;13.346;2023-12-04T01:16:19;20.00;;;17.40;;
15843;SDS011;50807;52.436;13.346;2023-12-04T01:16:50;18.38;;;16.48;;
15843;SDS011;50807;52.436;13.346;2023-12-04T01:17:21;19.98;;;17.13;;
15843;SDS011;50807;52.436;13.346;2023-12-04T01:17:53;19.27;;;17.17;;
15843;SDS011;50807;52.436;13.346;2023-12-04T01:18:24;19.50;;;17.38;;
15843;SDS011;50807;52.436;13.346;2023-12-04T01:18:55;19.47;;;17.47;;
15843;SDS011;50807;52.436;13.346;2023-12-04T01:19:25;18.57;;;16.60;;
15843;SDS011;50807;52.436;13.346;2023-12-04T01:19:57;20.45;;;17.27;;
15843;SDS011;50807;52.436;13.346;2023-12-04T01:20:28;19.83;;;17.17;;
15843;SDS011;50807;52.436;13.346;2023-12-04T01:20:59;19.37;;;17.27;;
15843;SDS011;50807;52.436;13.346;2023-12-04T01:21:30;20.07;;;17.80;;
15843;SDS011;50807;52.436;13.346;2023-12-04T01:22:02;19.27;;;17.20;;
15843;SDS011;50807;52.436;13.346;2023-12-04T01:22:33;19.80;;;17.73;;
15843;SDS011;50807;52.436;13.346;2023-12-04T01:23:04;19.37;;;17.27;;
15843;SDS011;50807;52.436;13.346;2023-12-04T01:23:36;19.38;;;17.27;;
15843;SDS011;50807;52.436;13.346;2023-12-04T01:24:08;18.70;;;16.70;;
15843;SDS011;50807;52.436;13.346;2023-12-04T01:24:38;19.63;;;17.35;;
15843;SDS011;50807;52.436;13.346;2023-12-04T01:25:09;19.10;;;17.07;;
15843;SDS011;50807;52.436;13.346;2023-12-04T01:25:41;19.60;;;17.50;;
15843;SDS011;50807;52.436;13.346;2023-12-04T01:26:11;20.97;;;18.77;;
15843;SDS011;50807;52.436;13.346;2023-12-04T01:26:42;19.63;;;17.63;;
15843;SDS011;50807;52.436;13.346;2023-12-04T01:27:13;20.80;;;17.97;;
15843;SDS011;50807;52.436;13.346;2023-12-04T01:27:45;19.92;;;17.83;;
15843;SDS011;50807;52.436;13.346;2023-12-04T01:28:15;20.33;;;17.93;;
15843;SDS011;50807;52.436;13.346;2023-12-04T01:28:46;20.63;;;17.77;;
15843;SDS011;50807;52.436;13.346;2023-12-04T01:29:18;19.08;;;17.05;;
15843;SDS011;50807;52.436;13.346;2023-12-04T01:29:49;19.95;;;17.77;;
15843;SDS011;50807;52.436;13.346;2023-12-04T01:30:20;18.40;;;16.50;;
15843;SDS011;50807;52.436;13.346;2023-12-04T01:30:52;20.02;;;16.77;;
15843;SDS011;50807;52.436;13.346;2023-12-04T01:31:23;19.33;;;17.27;;
15843;SDS011;50807;52.436;13.346;2023-12-04T01:31:54;19.48;;;17.38;;
15843;SDS011;50807;52.436;13.346;2023-12-04T01:32:25;20.00;;;17.90;;
15843;SDS011;50807;52.436;13.346;2023-12-04T01:32:56;19.37;;;17.37;;
15843;SDS011;50807;52.436;13.346;2023-12-04T01:33:26;16.77;;;14.97;;
15843;SDS011;50807;52.436;13.346;2023-12-04T01:33:58;20.17;;;18.02;;
15843;SDS011;50807;52.436;13.346;2023-12-04T01:34:29;19.17;;;17.13;;
15843;SDS011;50807;52.436;13.346;2023-12-04T01:34:59;19.67;;;17.57;;
15843;SDS011;50807;52.436;13.346;2023-12-04T01:35:31;20.77;;;18.48;;
15843;SDS011;50807;52.436;13.346;2023-12-04T01:36:03;20.35;;;17.95;;
15843;SDS011;50807;52.436;13.346;2023-12-04T01:36:35;20.02;;;17.35;;
15843;SDS011;50807;52.436;13.346;2023-12-04T01:37:10;18.85;;;16.85;;
15843;SDS011;50807;52.436;13.346;2023-12-04T01:37:41;19.75;;;17.65;;
15843;SDS011;50807;52.436;13.346;2023-12-04T01:38:12;18.73;;;16.73;;
15843;SDS011;50807;52.436;13.346;2023-12-04T01:38:44;19.27;;;17.27;;
15843;SDS011;50807;52.436;13.346;2023-12-04T01:39:16;18.87;;;16.87;;
15843;SDS011;50807;52.436;13.346;2023-12-04T01:39:46;18.52;;;16.52;;
15843;SDS011;50807;52.436;13.346;2023-12-04T01:40:17;19.67;;;17.57;;
15843;SDS011;50807;52.436;13.346;2023-12-04T01:40:49;19.00;;;16.83;;
15843;SDS011;50807;52.436;13.346;2023-12-04T01:41:19;19.20;;;17.17;;
15843;SDS011;50807;52.436;13.346;2023-12-04T01:41:51;19.80;;;17.33;;
15843;SDS011;50807;52.436;13.346;2023-12-04T01:42:21;19.07;;;17.07;;
15843;SDS011;50807;52.436;13.346;2023-12-04T01:42:53;19.63;;;17.27;;
15843;SDS011;50807;52.436;13.346;2023-12-04T01:43:24;20.77;;;17.37;;
15843;SDS011;50807;52.436;13.346;2023-12-04T01:43:55;19.73;;;17.27;;
15843;SDS011;50807;52.436;13.346;2023-12-04T01:44:26;20.50;;;18.30;;
15843;SDS011;50807;52.436;13.346;2023-12-04T01:44:57;19.50;;;17.40;;
15843;SDS011;50807;52.436;13.346;2023-12-04T01:45:29;19.05;;;16.85;;
15843;SDS011;50807;52.436;13.346;2023-12-04T01:45:59;20.40;;;17.50;;
15843;SDS011;50807;52.436;13.346;2023-12-04T01:46:32;18.20;;;16.30;;
15843;SDS011;50807;52.436;13.346;2023-12-04T01:47:04;19.35;;;17.30;;
15843;SDS011;50807;52.436;13.346;2023-12-04T01:47:37;20.08;;;17.42;;
15843;SDS011;50807;52.436;13.346;2023-12-04T01:48:08;19.50;;;17.40;;
15843;SDS011;50807;52.436;13.346;2023-12-04T01:48:41;19.48;;;17.33;;
15843;SDS011;50807;52.436;13.346;2023-12-04T01:49:12;19.83;;;16.63;;
15843;SDS011;50807;52.436;13.346;2023-12-04T01:49:43;20.58;;;18.23;;
15843;SDS011;50807;52.436;13.346;2023-12-04T01:50:14;19.88;;;17.42;;
15843;SDS011;50807;52.436;13.346;2023-12-04T01:50:47;18.83;;;16.85;;
15843;SDS011;50807;52.436;13.346;2023-12-04T01:51:19;19.15;;;16.08;;
15843;SDS011;50807;52.436;13.346;2023-12-04T01:51:50;20.45;;;17.70;;
15843;SDS011;50807;52.436;13.346;2023-12-04T01:52:23;19.45;;;17.35;;
15843;SDS011;50807;52.436;13.346;2023-12-04T01:52:54;19.83;;;17.77;;
15843;SDS011;50807;52.436;13.346;2023-12-04T01:53:24;19.10;;;17.10;;
15843;SDS011;50807;52.436;13.346;2023-12-04T01:53:55;20.60;;;18.40;;
15843;SDS011;50807;52.436;13.346;2023-12-04T01:54:31;20.40;;;17.98;;
15843;SDS011;50807;52.436;13.346;2023-12-04T01:55:04;19.80;;;17.50;;
15843;SDS011;50807;52.436;13.346;2023-12-04T01:55:38;19.42;;;16.65;;
15843;SDS011;50807;52.436;13.346;2023-12-04T01:56:10;19.42;;;17.38;;
15843;SDS011;50807;52.436;13.346;2023-12-04T01:56:45;21.45;;;18.92;;
15843;SDS011;50807;52.436;13.346;2023-12-04T01:57:17;21.20;;;18.52;;
15843;SDS011;50807;52.436;13.346;2023-12-04T01:57:48;20.02;;;17.92;;
15843;SDS011;50807;52.436;13.346;2023-12-04T01:58:20;19.55;;;17.10;;
15843;SDS011;50807;52.436;13.346;2023-12-04T01:58:51;19.83;;;17.77;;
15843;SDS011;50807;52.436;13.346;2023-12-04T01:59:22;19.90;;;17.80;;
15843;SDS011;50807;52.436;13.346;2023-12-04T01:59:55;19.65;;;17.65;;
15843;SDS011;50807;52.436;13.346;2023-12-04T02:00:27;19.52;;;17.45;;
15843;SDS011;50807;52.436;13.346;2023-12-04T02:00:58;18.75;;;16.77;;
15843;SDS011;50807;52.436;13.346;2023-12-04T02:01:29;19.10;;;17.10;;
15843;SDS011;50807;52.436;13.346;2023-12-04T02:02:01;19.30;;;17.33;;
15843;SDS011;50807;52.436;13.346;2023-12-04T02:02:32;19.75;;;17.65;;
15843;SDS011;50807;52.436;13.346;2023-12-04T02:03:03;19.42;;;17.40;;
15843;SDS011;50807;52.436;13.346;2023-12-04T02:03:35;18.85;;;16.90;;
15843;SDS011;50807;52.436;13.346;2023-12-04T02:04:06;20.40;;;18.23;;
15843;SDS011;50807;52.436;13.346;2023-12-04T02:04:37;20.67;;;18.23;;
15843;SDS011;50807;52.436;13.346;2023-12-04T02:05:09;20.17;;;18.08;;
15843;SDS011;50807;52.436;13.346;2023-12-04T02:05:41;19.17;;;17.23;;
15843;SDS011;50807;52.436;13.346;2023-12-04T02:06:14;17.85;;;16.02;;
15843;SDS011;50807;52.436;13.346;2023-12-04T02:06:47;19.35;;;17.17;;
15843;SDS011;50807;52.436;13.346;2023-12-04T02:07:19;19.90;;;17.80;;
15843;SDS011;50807;52.436;13.346;2023-12-04T02:07:50;19.92;;;17.55;;
15843;SDS011;50807;52.436;13.346;2023-12-04T02:08:21;19.85;;;17.67;;
15843;SDS011;50807;52.436;13.346;2023-12-04T02:08:52;20.33;;;18.15;;
15843;SDS011;50807;52.436;13.346;2023-12-04T02:09:23;19.77;;;17.67;;
15843;SDS011;50807;52.436;13.346;2023-12-04T02:09:56;20.40;;;18.00;;
15843;SDS011;50807;52.436;13.346;2023-12-04T02:10:27;19.75;;;17.65;;
15843;SDS011;50807;52.436;13.346;2023-12-04T02:10:58;20.03;;;17.80;;
15843;SDS011;50807;52.436;13.346;2023-12-04T02:11:30;18.52;;;16.27;;
15843;SDS011;50807;52.436;13.346;2023-12-04T02:12:01;18.47;;;16.60;;
15843;SDS011;50807;52.436;13.346;2023-12-04T02:12:32;19.25;;;17.23;;
15843;SDS011;50807;52.436;13.346;2023-12-04T02:13:03;19.80;;;17.70;;
15843;SDS011;50807;52.436;13.346;2023-12-04T02:13:35;20.35;;;18.17;;
15843;SDS011;50807;52.436;13.346;2023-12-04T02:14:06;20.17;;;18.00;;
15843;SDS011;50807;52.436;13.346;2023-12-04T02:14:37;21.52;;;18.17;;
15843;SDS011;50807;52.436;13.346;2023-12-04T02:15:08;19.53;;;17.50;;
15843;SDS011;50807;52.436;13.346;2023-12-04T02:15:40;18.80;;;16.80;;
15843;SDS011;50807;52.436;13.346;2023-12-04T02:16:11;18.97;;;17.00;;
15843;SDS011;50807;52.436;13.346;2023-12-04T02:16:45;20.90;;;18.05;;
15843;SDS011;50807;52.436;13.346;2023-12-04T02:17:19;19.92;;;17.85;;
15843;SDS011;50807;52.436;13.346;2023-12-04T02:17:51;18.95;;;16.92;;
15843;SDS011;50807;52.436;13.346;2023-12-04T02:18:22;18.45;;;16.52;;
15843;SDS011;50807;52.436;13.346;2023-12-04T02:18:54;19.48;;;17.48;;
15843;SDS011;50807;52.436;13.346;2023-12-04T02:19:26;19.25;;;17.25;;
15843;SDS011;50807;52.436;13.346;2023-12-04T02:19:57;19.17;;;17.10;;
15843;SDS011;50807;52.436;13.346;2023-12-04T02:20:31;19.23;;;17.23;;
15843;SDS011;50807;52.436;13.346;2023-12-04T02:21:03;20.98;;;18.02;;
15843;SDS011;50807;52.436;13.346;2023-12-04T02:21:36;18.38;;;16.35;;
15843;SDS011;50807;52.436;13.346;2023-12-04T02:22:06;18.80;;;16.73;;
15843;SDS011;50807;52.436;13.346;2023-12-04T02:22:37;18.87;;;16.90;;
15843;SDS011;50807;52.436;13.346;2023-12-04T02:23:08;18.63;;;16.63;;
15843;SDS011;50807;52.436;13.346;2023-12-04T02:23:40;19.38;;;17.38;;
15843;SDS011;50807;52.436;13.346;2023-12-04T02:24:12;19.43;;;17.20;;
15843;SDS011;50807;52.436;13.346;2023-12-04T02:24:43;19.52;;;17.48;;
15843;SDS011;50807;52.436;13.346;2023-12-04T02:25:14;19.88;;;17.77;;
15843;SDS011;50807;52.436;13.346;2023-12-04T02:25:45;18.77;;;16.87;;
15843;SDS011;50807;52.436;13.346;2023-12-04T02:26:16;19.27;;;17.23;;
15843;SDS011;50807;52.436;13.346;2023-12-04T02:26:56;18.25;;;16.35;;
15843;SDS011;50807;52.436;13.346;2023-12-04T02:27:40;19.23;;;16.67;;
15843;SDS011;50807;52.436;13.346;2023-12-04T02:28:17;18.55;;;16.52;;
15843;SDS011;50807;52.436;13.346;2023-12-04T02:28:50;19.65;;;17.48;;
15843;SDS011;50807;52.436;13.346;2023-12-04T02:29:29;19.42;;;17.42;;
15843;SDS011;50807;52.436;13.346;2023-12-04T02:30:09;17.75;;;15.85;;
15843;SDS011;50807;52.436;13.346;2023-12-04T02:30:43;18.85;;;16.88;;
15843;SDS011;50807;52.436;13.346;2023-12-04T02:31:16;18.38;;;16.48;;
15843;SDS011;50807;52.436;13.346;2023-12-04T02:31:49;18.92;;;16.85;;
15843;SDS011;50807;52.436;13.346;2023-12-04T02:32:24;18.48;;;16.48;;
15843;SDS011;50807;52.436;13.346;2023-12-04T02:33:00;18.67;;;16.67;;
15843;SDS011;50807;52.436;13.346;2023-12-04T02:33:34;21.17;;;17.60;;
15843;SDS011;50807;52.436;13.346;2023-12-04T02:34:07;20.30;;;18.17;;
15843;SDS011;50807;52.436;13.346;2023-12-04T02:34:45;18.98;;;16.85;;
15843;SDS011;50807;52.436;13.346;2023-12-04T02:35:19;18.02;;;16.13;;
15843;SDS011;50807;52.436;13.346;2023-12-04T02:35:54;18.58;;;16.65;;
15843;SDS011;50807;52.436;13.346;2023-12-04T02:36:29;20.50;;;17.92;;
15843;SDS011;50807;52.436;13.346;2023-12-04T02:37:02;19.48;;;17.38;;
15843;SDS011;50807;52.436;13.346;2023-12-04T02:37:36;18.95;;;16.98;;
15843;SDS011;50807;52.436;13.346;2023-12-04T02:38:09;19.00;;;17.02;;
15843;SDS011;50807;52.436;13.346;2023-12-04T02:38:41;19.58;;;17.48;;
15843;SDS011;50807;52.436;13.346;2023-12-04T02:39:14;19.33;;;17.23;;
15843;SDS011;50807;52.436;13.346;2023-12-04T02:39:45;19.75;;;17.60;;
15843;SDS011;50807;52.436;13.346;2023-12-04T02:40:18;18.70;;;16.80;;
15843;SDS011;50807;52.436;13.346;2023-12-04T02:40:51;19.17;;;17.20;;
15843;SDS011;50807;52.436;13.346;2023-12-04T02:41:22;19.05;;;17.08;;
15843;SDS011;50807;52.436;13.346;2023-12-04T02:41:52;18.37;;;16.43;;
15843;SDS011;50807;52.436;13.346;2023-12-04T02:42:23;18.73;;;16.83;;
15843;SDS011;50807;52.436;13.346;2023-12-04T02:42:55;19.00;;;17.00;;
15843;SDS011;50807;52.436;13.346;2023-12-04T02:43:26;19.60;;;17.60;;
15843;SDS011;50807;52.436;13.346;2023-12-04T02:43:57;19.43;;;17.43;;
15843;SDS011;50807;52.436;13.346;2023-12-04T02:44:28;19.80;;;17.70;;
15843;SDS011;50807;52.436;13.346;2023-12-04T02:44:59;19.75;;;17.75;;
15843;SDS011;50807;52.436;13.346;2023-12-04T02:45:30;19.03;;;16.97;;
15843;SDS011;50807;52.436;13.346;2023-12-04T02:46:01;19.07;;;16.97;;
15843;SDS011;50807;52.436;13.346;2023-12-04T02:46:32;19.83;;;17.83;;
15843;SDS011;50807;52.436;13.346;2023-12-04T02:47:03;19.40;;;17.30;;
15843;SDS011;50807;52.436;13.346;2023-12-04T02:47:34;20.00;;;17.80;;
15843;SDS011;50807;52.436;13.346;2023-12-04T02:48:05;19.53;;;17.53;;
15843;SDS011;50807;52.436;13.346;2023-12-04T02:48:37;19.60;;;17.50;;
15843;SDS011;50807;52.436;13.346;2023-12-04T02:49:09;20.67;;;18.52;;
15843;SDS011;50807;52.436;13.346;2023-12-04T02:49:39;19.27;;;17.37;;
15843;SDS011;50807;52.436;13.346;2023-12-04T02:50:10;18.50;;;16.43;;
15843;SDS011;50807;52.436;13.346;2023-12-04T02:50:42;19.25;;;17.35;;
15843;SDS011;50807;52.436;13.346;2023-12-04T02:51:13;19.07;;;17.07;;
15843;SDS011;50807;52.436;13.346;2023-12-04T02:51:43;18.70;;;16.80;;
15843;SDS011;50807;52.436;13.346;2023-12-04T02:52:14;19.63;;;17.67;;
15843;SDS011;50807;52.436;13.346;2023-12-04T02:52:46;19.63;;;17.60;;
15843;SDS011;50807;52.436;13.346;2023-12-04T02:53:16;18.77;;;16.73;;
15843;SDS011;50807;52.436;13.346;2023-12-04T02:53:47;18.73;;;16.83;;
15843;SDS011;50807;52.436;13.346;2023-12-04T02:54:19;18.63;;;16.73;;
15843;SDS011;50807;52.436;13.346;2023-12-04T02:54:50;19.77;;;17.25;;
15843;SDS011;50807;52.436;13.346;2023-12-04T02:55:22;19.75;;;17.65;;
15843;SDS011;50807;52.436;13.346;2023-12-04T02:55:52;19.17;;;16.97;;
15843;SDS011;50807;52.436;13.346;2023-12-04T02:56:23;20.27;;;17.97;;
15843;SDS011;50807;52.436;13.346;2023-12-04T02:56:54;18.97;;;16.97;;
15843;SDS011;50807;52.436;13.346;2023-12-04T02:57:25;19.35;;;17.35;;
15843;SDS011;50807;52.436;13.346;2023-12-04T02:57:56;18.87;;;16.80;;
15843;SDS011;50807;52.436;13.346;2023-12-04T02:58:27;19.67;;;17.67;;
15843;SDS011;50807;52.436;13.346;2023-12-04T02:58:58;19.80;;;17.80;;
15843;SDS011;50807;52.436;13.346;2023-12-04T02:59:29;20.10;;;18.10;;
15843;SDS011;50807;52.436;13.346;2023-12-04T03:00:00;19.67;;;17.63;;
15843;SDS011;50807;52.436;13.346;2023-12-04T03:00:31;20.53;;;18.37;;
15843;SDS011;50807;52.436;13.346;2023-12-04T03:01:01;19.23;;;17.33;;
15843;SDS011;50807;52.436;13.346;2023-12-04T03:01:33;19.60;;;17.45;;
15843;SDS011;50807;52.436;13.346;2023-12-04T03:02:04;19.97;;;17.83;;